createdAt,value
2019-02-27T00:02:11.326Z,15.50
2019-02-27T00:04:49.035Z,19.03
2019-02-27T00:07:21.490Z,16.30
2019-02-27T00:09:50.253Z,16.23
2019-02-27T00:12:19.331Z,13.23
2019-02-27T00:14:57.996Z,13.73
2019-02-27T00:17:27.134Z,12.57
2019-02-27T00:19:58.866Z,17.97
2019-02-27T00:22:27.625Z,15.43
2019-02-27T00:25:05.438Z,15.13
2019-02-27T00:27:34.129Z,18.60
2019-02-27T00:30:05.618Z,15.57
2019-02-27T00:32:34.498Z,18.87
2019-02-27T00:35:12.105Z,16.10
2019-02-27T00:37:40.879Z,15.73
2019-02-27T00:40:09.719Z,14.47
2019-02-27T00:42:38.396Z,14.67
2019-02-27T00:45:16.368Z,14.07
2019-02-27T00:47:45.060Z,17.53
2019-02-27T00:50:13.772Z,13.87
2019-02-27T00:52:42.481Z,15.00
2019-02-27T00:55:26.420Z,16.00
2019-02-27T00:57:55.872Z,14.33
2019-02-27T01:00:27.496Z,14.50
2019-02-27T01:02:56.218Z,14.57
2019-02-27T01:05:25.107Z,15.33
2019-02-27T01:08:04.292Z,15.80
2019-02-27T01:10:33.059Z,14.33
2019-02-27T01:13:01.991Z,17.20
2019-02-27T01:15:31.948Z,15.90
2019-02-27T01:18:09.594Z,15.47
2019-02-27T01:20:38.401Z,20.00
2019-02-27T01:23:10.869Z,17.97
2019-02-27T01:25:37.630Z,14.87
2019-02-27T01:28:15.790Z,13.90
2019-02-27T01:30:44.832Z,14.90
2019-02-27T01:33:13.624Z,15.67
2019-02-27T01:35:42.324Z,16.97
2019-02-27T01:38:20.181Z,16.83
2019-02-27T01:40:51.674Z,16.70
2019-02-27T01:43:19.682Z,18.03
2019-02-27T01:45:48.479Z,14.63
2019-02-27T01:48:26.643Z,14.77
2019-02-27T01:51:04.569Z,17.53
2019-02-27T01:53:35.076Z,16.30
2019-02-27T01:56:03.742Z,15.57
2019-02-27T01:58:32.518Z,12.60
2019-02-27T02:01:10.382Z,14.60
2019-02-27T02:03:39.129Z,16.47
2019-02-27T02:06:10.129Z,14.63
2019-02-27T02:08:39.330Z,15.63
2019-02-27T02:11:17.291Z,14.93
2019-02-27T02:14:42.868Z,17.97
2019-02-27T02:17:47.668Z,16.50
2019-02-27T02:21:15.829Z,15.83
2019-02-27T02:24:27.840Z,18.80
2019-02-27T02:27:07.758Z,15.97
2019-02-27T02:30:29.176Z,18.20
2019-02-27T02:37:04.189Z,15.17
2019-02-27T02:40:10.300Z,15.13
2019-02-27T02:46:20.764Z,19.63
2019-02-27T02:49:33.412Z,14.47
2019-02-27T02:55:36.318Z,13.17
2019-02-27T02:59:04.847Z,14.63
2019-02-27T03:02:23.774Z,14.70
2019-02-27T03:05:30.340Z,15.50
2019-02-27T03:08:04.213Z,19.10
2019-02-27T03:11:00.148Z,15.67
2019-02-27T03:14:19.271Z,15.43
2019-02-27T03:17:17.852Z,14.07
2019-02-27T03:20:08.865Z,16.10
2019-02-27T03:23:08.985Z,14.07
2019-02-27T03:26:04.430Z,18.73
2019-02-27T03:29:07.495Z,15.03
2019-02-27T03:32:12.634Z,12.50
2019-02-27T03:35:28.031Z,16.10
2019-02-27T03:38:29.746Z,18.40
2019-02-27T03:41:07.146Z,18.63
2019-02-27T03:44:32.516Z,15.47
2019-02-27T03:47:42.059Z,15.77
2019-02-27T03:50:30.152Z,18.63
2019-02-27T03:53:25.509Z,15.50
2019-02-27T03:56:31.989Z,13.00
2019-02-27T03:59:41.920Z,13.90
2019-02-27T04:02:45.716Z,16.40
2019-02-27T04:06:04.724Z,13.43
2019-02-27T04:08:58.484Z,17.10
2019-02-27T04:11:27.634Z,15.80
2019-02-27T04:17:07.756Z,16.23
2019-02-27T04:19:39.304Z,15.80
2019-02-27T04:22:16.375Z,17.33
2019-02-27T04:24:45.054Z,18.17
2019-02-27T04:27:19.981Z,18.23
2019-02-27T04:29:44.404Z,17.83
2019-02-27T04:32:22.262Z,16.40
2019-02-27T04:34:50.998Z,15.90
2019-02-27T04:37:20.345Z,16.97
2019-02-27T04:39:49.741Z,16.07
2019-02-27T04:42:27.451Z,17.00
2019-02-27T04:44:56.290Z,14.07
2019-02-27T04:47:29.249Z,14.97
2019-02-27T04:49:56.618Z,17.80
2019-02-27T04:52:34.805Z,16.93
2019-02-27T04:55:03.593Z,16.10
2019-02-27T04:57:33.637Z,16.60
2019-02-27T05:00:04.858Z,14.70
2019-02-27T05:05:18.456Z,16.47
2019-02-27T05:07:47.465Z,14.53
2019-02-27T05:10:18.770Z,14.07
2019-02-27T05:12:58.090Z,16.90
2019-02-27T05:15:26.955Z,17.57
2019-02-27T05:17:58.844Z,18.03
2019-02-27T05:20:28.204Z,15.87
2019-02-27T05:23:06.200Z,17.33
2019-02-27T05:25:35.098Z,14.13
2019-02-27T05:28:04.167Z,14.13
2019-02-27T05:30:34.720Z,18.33
2019-02-27T05:33:15.746Z,12.67
2019-02-27T05:35:44.441Z,14.63
2019-02-27T05:38:13.540Z,13.00
2019-02-27T05:40:42.410Z,15.07
2019-02-27T05:43:21.329Z,15.13
2019-02-27T05:45:50.090Z,14.77
2019-02-27T05:48:20.030Z,16.53
2019-02-27T05:50:49.325Z,14.73
2019-02-27T05:53:26.959Z,13.63
2019-02-27T05:55:58.568Z,19.13
2019-02-27T05:58:27.333Z,15.37
2019-02-27T06:00:56.303Z,16.37
2019-02-27T06:03:35.458Z,14.97
2019-02-27T06:06:04.109Z,14.80
2019-02-27T06:08:37.988Z,15.47
2019-02-27T06:11:05.745Z,16.40
2019-02-27T06:13:45.076Z,19.97
2019-02-27T06:16:14.895Z,15.87
2019-02-27T06:18:43.961Z,16.13
2019-02-27T06:21:13.410Z,16.97
2019-02-27T06:23:52.405Z,14.43
2019-02-27T06:26:21.093Z,18.30
2019-02-27T06:28:50.102Z,15.23
2019-02-27T06:31:18.925Z,18.50
2019-02-27T06:33:59.008Z,15.27
2019-02-27T06:36:27.606Z,13.80
2019-02-27T06:39:00.113Z,17.70
2019-02-27T06:41:26.768Z,12.57
2019-02-27T06:44:06.650Z,12.63
2019-02-27T06:46:35.446Z,13.13
2019-02-27T06:49:04.200Z,15.53
2019-02-27T06:51:35.882Z,12.27
2019-02-27T06:54:18.156Z,16.47
2019-02-27T06:56:44.717Z,12.67
2019-02-27T06:59:13.491Z,15.83
2019-02-27T07:01:42.262Z,11.33
2019-02-27T07:04:20.344Z,13.07
2019-02-27T07:06:49.193Z,13.93
2019-02-27T07:09:18.984Z,12.37
2019-02-27T07:11:48.945Z,19.23
2019-02-27T07:14:26.626Z,15.47
2019-02-27T07:16:57.330Z,14.93
2019-02-27T07:19:28.585Z,18.43
2019-02-27T07:21:57.312Z,22.43
2019-02-27T07:24:35.225Z,21.47
2019-02-27T07:27:04.172Z,24.80
2019-02-27T07:29:32.990Z,23.97
2019-02-27T07:32:02.637Z,15.67
2019-02-27T07:34:41.513Z,16.10
2019-02-27T07:37:12.830Z,17.53
2019-02-27T07:39:43.896Z,18.57
2019-02-27T07:42:13.117Z,22.70
2019-02-27T07:44:51.270Z,16.03
2019-02-27T07:47:19.956Z,14.30
2019-02-27T07:49:48.864Z,11.93
2019-02-27T07:52:17.775Z,24.97
2019-02-27T07:54:57.045Z,13.73
2019-02-27T07:57:26.292Z,15.00
2019-02-27T07:59:55.502Z,11.23
2019-02-27T08:02:24.481Z,11.73
2019-02-27T08:05:04.828Z,15.47
2019-02-27T08:07:34.286Z,17.50
2019-02-27T08:10:06.886Z,12.13
2019-02-27T08:12:35.565Z,14.57
2019-02-27T08:15:17.030Z,10.83
2019-02-27T08:17:46.500Z,13.13
2019-02-27T08:20:20.210Z,15.00
2019-02-27T08:22:49.318Z,17.43
2019-02-27T08:25:27.292Z,18.07
2019-02-27T08:27:58.778Z,12.90
2019-02-27T08:30:27.526Z,11.87
2019-02-27T08:32:56.571Z,13.33
2019-02-27T08:35:34.823Z,12.90
2019-02-27T08:38:04.008Z,17.77
2019-02-27T08:40:32.721Z,16.27
2019-02-27T08:43:01.791Z,18.33
2019-02-27T08:45:42.258Z,16.47
2019-02-27T08:48:11.161Z,15.15
2019-02-27T08:50:41.407Z,13.10
2019-02-27T08:53:11.287Z,15.48
2019-02-27T08:55:52.340Z,23.27
2019-02-27T08:58:21.052Z,15.13
2019-02-27T09:00:51.788Z,15.00
2019-02-27T09:03:20.982Z,14.40
2019-02-27T09:08:36.234Z,16.60
2019-02-27T09:11:06.571Z,15.60
2019-02-27T09:13:35.543Z,16.60
2019-02-27T09:16:13.595Z,16.37
2019-02-27T09:18:44.099Z,16.37
2019-02-27T09:21:13.069Z,15.77
2019-02-27T09:23:41.802Z,20.97
2019-02-27T09:26:19.685Z,19.80
2019-02-27T09:28:51.629Z,16.53
2019-02-27T09:31:20.531Z,19.67
2019-02-27T09:33:53.168Z,14.75
2019-02-27T09:36:35.898Z,14.47
2019-02-27T09:39:06.541Z,16.27
2019-02-27T09:41:35.726Z,14.10
2019-02-27T09:44:29.800Z,14.95
2019-02-27T09:47:07.911Z,17.12
2019-02-27T09:49:41.559Z,14.15
2019-02-27T09:52:24.839Z,15.50
2019-02-27T09:54:54.917Z,20.35
2019-02-27T09:57:36.742Z,21.42
2019-02-27T10:00:07.090Z,16.62
2019-02-27T10:02:35.962Z,15.10
2019-02-27T10:05:15.522Z,17.25
2019-02-27T10:07:54.103Z,13.20
2019-02-27T10:11:57.818Z,12.63
2019-02-27T10:17:59.697Z,14.23
2019-02-27T10:20:42.638Z,13.45
2019-02-27T10:23:34.629Z,16.70
2019-02-27T10:26:46.993Z,14.60
2019-02-27T10:29:14.714Z,14.05
2019-02-27T10:31:51.774Z,14.30
2019-02-27T10:34:26.062Z,16.17
2019-02-27T10:37:07.493Z,16.57
2019-02-27T10:39:37.136Z,13.20
2019-02-27T10:42:06.699Z,13.32
2019-02-27T10:44:36.989Z,17.25
2019-02-27T10:49:56.546Z,15.85
2019-02-27T10:52:51.430Z,16.25
2019-02-27T10:55:42.508Z,18.15
2019-02-27T10:58:21.265Z,12.10
2019-02-27T11:00:50.714Z,13.62
2019-02-27T11:03:29.540Z,16.90
2019-02-27T11:06:38.388Z,15.38
2019-02-27T11:09:25.654Z,13.38
2019-02-27T11:12:04.841Z,11.80
2019-02-27T11:14:40.219Z,10.60
2019-02-27T11:19:59.411Z,9.78
2019-02-27T11:22:32.379Z,10.03
2019-02-27T11:25:38.891Z,14.75
2019-02-27T11:28:25.029Z,11.38
2019-02-27T11:31:03.821Z,14.15
2019-02-27T11:33:48.387Z,13.60
2019-02-27T11:39:36.754Z,11.68
2019-02-27T11:42:28.957Z,10.93
2019-02-27T11:48:13.605Z,13.72
2019-02-27T11:51:05.745Z,12.20
2019-02-27T11:53:37.836Z,13.43
2019-02-27T11:56:06.804Z,14.00
2019-02-27T11:58:44.611Z,12.88
2019-02-27T12:01:13.479Z,8.95
2019-02-27T12:03:45.713Z,12.63
2019-02-27T12:06:12.963Z,10.65
2019-02-27T12:08:59.566Z,10.18
2019-02-27T12:11:29.100Z,9.80
2019-02-27T12:13:57.924Z,8.08
2019-02-27T12:16:26.761Z,7.10
2019-02-27T12:19:06.441Z,6.42
2019-02-27T12:21:35.057Z,10.55
2019-02-27T12:24:07.004Z,10.28
2019-02-27T12:26:37.654Z,7.50
2019-02-27T12:31:50.637Z,6.35
2019-02-27T12:34:19.421Z,7.47
2019-02-27T12:36:49.972Z,7.97
2019-02-27T12:39:28.092Z,7.50
2019-02-27T12:41:57.227Z,6.83
2019-02-27T12:44:26.156Z,8.30
2019-02-27T12:46:58.200Z,6.25
2019-02-27T12:52:14.350Z,6.05
2019-02-27T12:54:43.185Z,6.22
2019-02-27T12:57:27.303Z,7.72
2019-02-27T12:59:58.247Z,6.90
2019-02-27T13:02:35.498Z,6.55
2019-02-27T13:04:57.988Z,6.42
2019-02-27T13:10:14.928Z,9.30
2019-02-27T13:12:43.992Z,5.92
2019-02-27T13:15:14.281Z,6.12
2019-02-27T13:20:27.531Z,7.12
2019-02-27T13:23:04.081Z,11.12
2019-02-27T13:25:30.479Z,6.53
2019-02-27T13:28:14.558Z,9.63
2019-02-27T13:30:42.743Z,8.63
2019-02-27T13:33:12.066Z,5.80
2019-02-27T13:35:41.668Z,5.15
2019-02-27T13:38:20.104Z,5.50
2019-02-27T13:40:52.045Z,5.05
2019-02-27T13:43:20.824Z,8.75
2019-02-27T13:45:49.856Z,7.67
2019-02-27T13:48:27.623Z,6.10
2019-02-27T13:51:02.379Z,7.28
2019-02-27T13:53:30.962Z,6.30
2019-02-27T13:55:59.723Z,8.67
2019-02-27T13:58:37.909Z,7.10
2019-02-27T14:01:08.288Z,9.70
2019-02-27T14:03:37.118Z,10.07
2019-02-27T14:06:06.215Z,11.47
2019-02-27T14:08:45.677Z,12.73
2019-02-27T14:11:14.724Z,11.07
2019-02-27T14:13:44.828Z,9.07
2019-02-27T14:16:13.774Z,12.00
2019-02-27T14:18:54.173Z,11.63
2019-02-27T14:21:23.033Z,14.17
2019-02-27T14:23:57.069Z,10.80
2019-02-27T14:26:29.660Z,17.17
2019-02-27T14:29:14.434Z,13.33
2019-02-27T14:32:18.384Z,12.13
2019-02-27T14:34:51.427Z,13.80
2019-02-27T14:37:20.820Z,11.17
2019-02-27T14:40:03.732Z,9.63
2019-02-27T14:42:33.436Z,13.23
2019-02-27T14:45:05.995Z,13.17
2019-02-27T14:47:34.806Z,11.40
2019-02-27T14:50:15.282Z,10.67
2019-02-27T14:52:45.145Z,12.57
2019-02-27T14:55:15.270Z,12.43
2019-02-27T14:57:51.043Z,9.03
2019-02-27T15:00:29.997Z,10.07
2019-02-27T15:02:59.141Z,9.27
2019-02-27T15:05:28.115Z,10.30
2019-02-27T15:07:57.977Z,12.70
2019-02-27T15:10:49.349Z,10.57
2019-02-27T15:13:28.347Z,9.83
2019-02-27T15:16:07.223Z,10.70
2019-02-27T15:18:55.808Z,9.83
2019-02-27T15:21:26.938Z,9.97
2019-02-27T15:24:19.815Z,10.73
2019-02-27T15:27:08.051Z,9.20
2019-02-27T15:29:58.918Z,8.47
2019-02-27T15:33:51.471Z,10.17
2019-02-27T15:35:42.174Z,11.60
2019-02-27T15:38:46.980Z,8.63
2019-02-27T15:41:12.959Z,8.27
2019-02-27T15:43:57.485Z,10.10
2019-02-27T15:46:21.943Z,8.27
2019-02-27T15:48:52.345Z,13.20
2019-02-27T15:54:06.493Z,9.47
2019-02-27T15:56:43.176Z,8.40
2019-02-27T15:59:21.403Z,9.47
2019-02-27T16:01:51.260Z,11.37
2019-02-27T16:04:22.152Z,9.10
2019-02-27T16:06:54.188Z,13.10
2019-02-27T16:16:25.703Z,12.03
2019-02-27T16:19:11.555Z,9.10
2019-02-27T16:21:51.275Z,10.07
2019-02-27T16:24:20.456Z,10.00
2019-02-27T16:27:02.979Z,10.23
2019-02-27T17:20:17.727Z,13.60
2019-02-27T17:22:46.999Z,11.57
2019-02-27T17:25:17.076Z,11.10
2019-02-27T17:27:49.897Z,12.10
2019-02-27T17:33:05.790Z,15.50
2019-02-27T17:35:34.751Z,19.83
2019-02-27T17:38:06.402Z,14.57
2019-02-27T17:40:44.969Z,20.23
2019-02-27T17:43:14.007Z,32.07
2019-02-27T17:45:48.939Z,44.57
2019-02-27T17:48:19.912Z,75.10
2019-02-27T17:50:58.568Z,51.57
2019-02-27T17:53:28.207Z,32.37
2019-02-27T17:55:57.597Z,12.87
2019-02-27T17:58:33.743Z,15.67
2019-02-27T18:01:30.175Z,15.33
2019-02-27T18:04:37.558Z,20.50
2019-02-27T18:07:09.793Z,16.30
2019-02-27T18:09:41.175Z,19.43
2019-02-27T20:13:55.612Z,20.20
2019-02-27T20:16:24.551Z,21.83
2019-02-27T20:18:55.053Z,21.57
2019-02-27T20:21:24.032Z,21.87
2019-02-27T20:24:14.188Z,18.40
2019-02-27T20:26:44.284Z,19.73
2019-02-27T20:29:06.441Z,18.63
2019-02-27T20:31:35.405Z,18.67
2019-02-27T20:36:47.849Z,20.03
2019-02-27T20:39:17.779Z,16.93
2019-02-27T20:41:48.605Z,17.50
2019-02-27T20:44:29.356Z,16.87
2019-02-27T20:46:58.389Z,15.83
2019-02-27T20:49:27.128Z,17.80
2019-02-27T20:51:56.118Z,17.47
2019-02-27T20:57:12.582Z,15.40
2019-02-27T20:59:44.132Z,17.37
2019-02-27T21:02:12.980Z,15.13
2019-02-27T21:04:44.545Z,22.37
2019-02-27T21:07:22.025Z,16.33
2019-02-27T21:09:45.932Z,15.73
2019-02-27T21:12:14.959Z,16.87
2019-02-27T21:14:55.089Z,16.57
2019-02-27T21:17:24.168Z,15.43
2019-02-27T21:19:53.229Z,17.10
2019-02-27T21:22:22.166Z,16.83
2019-02-27T21:25:00.265Z,17.03
2019-02-27T21:27:32.966Z,16.87
2019-02-27T21:29:59.742Z,15.40
2019-02-27T21:32:28.482Z,18.43
2019-02-27T21:35:09.544Z,17.50
2019-02-27T21:37:41.288Z,17.07
2019-02-27T21:40:10.879Z,23.73
2019-02-27T21:42:40.466Z,19.77
2019-02-27T21:45:18.839Z,22.40
2019-02-27T21:47:51.368Z,20.47
2019-02-27T21:50:18.915Z,21.23
2019-02-27T21:52:47.831Z,23.27
2019-02-27T21:55:26.645Z,20.60
2019-02-27T21:57:58.259Z,18.73
2019-02-27T22:00:28.273Z,18.17
2019-02-27T22:02:57.213Z,31.03
2019-02-27T22:05:28.436Z,32.03
2019-02-27T22:07:58.646Z,49.33
2019-02-27T22:10:27.448Z,34.73
2019-02-27T22:12:56.177Z,31.97
2019-02-27T22:15:28.539Z,20.43
2019-02-27T22:17:57.500Z,19.47
2019-02-27T22:20:29.296Z,20.67
2019-02-27T22:22:59.405Z,19.70
2019-02-27T22:25:37.535Z,18.03
2019-02-27T22:28:06.237Z,17.83
2019-02-27T22:30:35.318Z,19.17
2019-02-27T22:33:04.630Z,19.93
2019-02-27T22:35:52.132Z,21.10
2019-02-27T22:38:25.702Z,20.03
2019-02-27T22:40:51.557Z,17.40
2019-02-27T22:43:22.805Z,16.83
2019-02-27T22:46:02.378Z,20.03
2019-02-27T22:48:33.699Z,17.77
2019-02-27T22:51:12.618Z,15.63
2019-02-27T22:53:59.510Z,15.77
2019-02-27T22:56:33.161Z,18.80
2019-02-27T22:59:09.878Z,17.37
2019-02-27T23:01:50.757Z,16.23
2019-02-27T23:04:31.781Z,15.70
2019-02-27T23:07:04.108Z,14.03
2019-02-27T23:09:42.159Z,14.70
2019-02-27T23:12:15.893Z,15.43
2019-02-27T23:14:58.080Z,18.67
2019-02-27T23:17:31.672Z,16.43
2019-02-27T23:20:05.605Z,14.17
2019-02-27T23:22:37.577Z,15.37
2019-02-27T23:25:19.862Z,15.33
2019-02-27T23:27:50.500Z,16.87
2019-02-27T23:30:22.121Z,18.57
2019-02-27T23:32:54.882Z,18.30
2019-02-27T23:35:33.480Z,22.77
2019-02-27T23:38:03.409Z,16.90
2019-02-27T23:40:32.931Z,19.43
2019-02-27T23:43:03.374Z,17.63
2019-02-27T23:45:44.468Z,18.47
2019-02-27T23:48:13.060Z,23.97
2019-02-27T23:50:43.244Z,21.53
2019-02-27T23:53:12.129Z,23.43
2019-02-27T23:55:51.360Z,20.17
2019-02-27T23:58:20.214Z,21.33
